Time;durP1;ratioP1;P1;durP2;ratioP2;P2;SDS_P1;SDS_P2;PMS_P1;PMS_P2;Temp;Humidity;BMP_temperature;BMP_pressure;BME280_temperature;BME280_humidity;BME280_pressure;Samples;Min_cycle;Max_cycle;Signal;HPM_P1;HPM_P2
2021/07/08 00:02:07;;;;;;;6.97;3.10;;;;;;;27.19;59.85;100424.41;5036950;28;20060;-79
2021/07/08 00:05:14;;;;;;;12.10;3.72;;;;;;;27.16;59.18;100421.31;5024841;28;20052;-80
2021/07/08 00:08:19;;;;;;;11.30;3.35;;;;;;;27.21;59.09;100416.72;5036688;28;20048;-80
2021/07/08 00:11:23;;;;;;;7.25;3.42;;;;;;;27.23;59.10;100416.50;5037210;28;20056;-80
2021/07/08 00:14:27;;;;;;;6.53;3.22;;;;;;;27.23;59.42;100420.09;5013131;28;20052;-79
2021/07/08 00:17:32;;;;;;;8.60;3.10;;;;;;;27.23;59.55;100422.88;5024835;28;20385;-80
2021/07/08 00:20:38;;;;;;;9.95;3.58;;;;;;;27.11;59.72;100424.75;5023408;28;20507;-79
2021/07/08 00:23:43;;;;;;;8.13;3.20;;;;;;;26.95;59.47;100426.34;5024721;28;20072;-79
2021/07/08 00:26:47;;;;;;;15.07;3.85;;;;;;;26.97;60.04;100434.38;5036884;28;20056;-80
2021/07/08 00:29:52;;;;;;;7.85;3.13;;;;;;;27.00;59.92;100433.88;5036575;28;20508;-80
2021/07/08 00:32:56;;;;;;;7.32;3.35;;;;;;;27.07;59.13;100446.47;5036677;28;20056;-80
2021/07/08 00:36:01;;;;;;;7.78;3.15;;;;;;;27.07;59.38;100443.72;5036130;28;20048;-79
2021/07/08 00:39:05;;;;;;;7.00;3.40;;;;;;;27.07;58.54;100442.88;5035976;28;20052;-80
2021/07/08 00:42:10;;;;;;;15.35;3.20;;;;;;;27.03;58.49;100460.97;5036222;28;20389;-79
2021/07/08 00:45:18;;;;;;;6.00;3.33;;;;;;;26.98;58.76;100458.94;5036067;28;20061;-78
2021/07/08 00:48:23;;;;;;;5.40;3.08;;;;;;;26.98;57.72;100458.09;5023802;28;20045;-79
2021/07/08 00:51:27;;;;;;;6.72;2.88;;;;;;;26.88;58.46;100461.44;5035920;28;20049;-80
2021/07/08 00:54:32;;;;;;;9.45;2.90;;;;;;;26.86;58.16;100460.00;5035960;28;20056;-79
2021/07/08 00:57:55;;;;;;;6.32;2.90;;;;;;;26.87;57.46;100454.25;5035481;28;20040;-78
2021/07/08 01:01:02;;;;;;;6.55;2.88;;;;;;;26.84;57.76;100462.97;5036210;28;20053;-80
2021/07/08 01:04:08;;;;;;;5.05;2.80;;;;;;;26.78;57.93;100457.59;5012507;28;20048;-79
2021/07/08 01:07:14;;;;;;;6.60;3.15;;;;;;;26.55;58.77;100460.25;5002265;28;20076;-79
2021/07/08 01:10:19;;;;;;;7.35;3.17;;;;;;;26.24;59.29;100464.97;5012472;28;20056;-79
2021/07/08 01:13:24;;;;;;;6.72;2.85;;;;;;;26.02;59.61;100460.19;5023581;28;20506;-80
2021/07/08 01:16:28;;;;;;;14.05;3.15;;;;;;;26.04;60.29;100455.28;5036042;28;20417;-79
2021/07/08 01:19:35;;;;;;;4.93;2.67;;;;;;;26.08;59.87;100456.50;5034987;28;20072;-80
2021/07/08 01:22:41;;;;;;;7.43;3.00;;;;;;;26.04;60.16;100463.53;5035866;28;20060;-79
2021/07/08 01:25:46;;;;;;;8.13;3.00;;;;;;;25.80;61.00;100465.34;5012402;28;20048;-79
2021/07/08 01:28:52;;;;;;;10.27;3.25;;;;;;;25.65;61.44;100456.66;5012236;28;20060;-80
2021/07/08 01:31:56;;;;;;;7.00;3.05;;;;;;;25.43;61.64;100453.47;5011853;28;20488;-80
2021/07/08 01:35:02;;;;;;;8.25;3.20;;;;;;;25.30;62.60;100458.28;5012001;28;20057;-79
2021/07/08 01:38:06;;;;;;;6.85;3.38;;;;;;;25.26;62.94;100454.31;5035263;28;20052;-80
2021/07/08 01:41:11;;;;;;;5.85;2.90;;;;;;;25.29;62.76;100446.44;5034701;28;20056;-80
2021/07/08 01:44:17;;;;;;;9.00;3.00;;;;;;;25.33;62.21;100447.66;5034911;28;20060;-79
2021/07/08 01:47:21;;;;;;;7.53;2.92;;;;;;;25.34;61.79;100440.25;5011884;28;20056;-80
2021/07/08 01:50:27;;;;;;;6.30;3.47;;;;;;;25.46;61.07;100446.69;5011498;28;20049;-80
2021/07/08 01:53:32;;;;;;;12.50;2.95;;;;;;;25.31;61.25;100435.25;5034800;28;20113;-80
2021/07/08 01:56:38;;;;;;;6.28;3.20;;;;;;;25.06;62.31;100425.13;5022787;28;20056;-80
2021/07/08 01:59:42;;;;;;;3.92;2.90;;;;;;;25.02;61.71;100429.41;5034643;28;20064;-79
2021/07/08 02:02:46;;;;;;;5.90;2.70;;;;;;;25.11;61.53;100427.19;5035014;28;20040;-78
2021/07/08 02:05:51;;;;;;;7.30;2.95;;;;;;;25.21;61.76;100430.25;5034696;28;20060;-79
2021/07/08 02:08:55;;;;;;;8.68;2.75;;;;;;;25.38;61.00;100425.81;5033790;28;20041;-79
2021/07/08 02:12:00;;;;;;;10.95;3.05;;;;;;;25.58;60.97;100428.38;5035063;28;20048;-81
2021/07/08 02:15:08;;;;;;;5.10;3.03;;;;;;;25.60;60.97;100429.81;5034785;28;20048;-78
2021/07/08 02:18:12;;;;;;;6.60;2.92;;;;;;;25.65;61.33;100437.41;5033575;28;20053;-79
2021/07/08 02:21:18;;;;;;;11.23;3.58;;;;;;;25.53;61.52;100431.00;5033896;28;20060;-79
2021/07/08 02:24:22;;;;;;;12.38;3.80;;;;;;;25.35;62.03;100422.72;5034451;28;20496;-79
2021/07/08 02:27:27;;;;;;;5.05;2.80;;;;;;;25.44;62.01;100416.69;5034634;28;20049;-79
2021/07/08 02:30:32;;;;;;;5.88;2.70;;;;;;;25.48;61.84;100403.34;5034403;28;20109;-79
2021/07/08 02:33:37;;;;;;;7.57;3.00;;;;;;;25.39;61.99;100400.03;5034277;28;20052;-80
2021/07/08 02:36:41;;;;;;;8.07;3.20;;;;;;;25.49;62.12;100418.75;5033403;28;20052;-80
2021/07/08 02:39:44;;;;;;;9.45;2.80;;;;;;;25.55;61.71;100423.34;5034128;28;20068;-79
2021/07/08 02:42:53;;;;;;;15.50;3.33;;;;;;;25.46;61.00;100413.72;5033509;28;20400;-79
2021/07/08 02:45:58;;;;;;;8.02;2.67;;;;;;;25.45;61.12;100425.81;5033082;28;20092;-79
2021/07/08 02:49:02;;;;;;;9.82;3.00;;;;;;;25.04;61.15;100432.75;5033659;28;20056;-80
2021/07/08 02:52:06;;;;;;;8.70;3.10;;;;;;;24.79;62.52;100440.16;5033995;28;20060;-81
2021/07/08 02:55:11;;;;;;;8.23;2.70;;;;;;;24.52;62.63;100444.16;5033390;28;20396;-80
2021/07/08 02:58:16;;;;;;;8.35;3.03;;;;;;;24.36;62.94;100431.00;5033128;28;20052;-80
2021/07/08 03:01:20;;;;;;;6.95;2.42;;;;;;;24.39;63.55;100422.34;5033238;28;20392;-79
2021/07/08 03:04:25;;;;;;;8.38;3.70;;;;;;;24.40;63.37;100421.25;5033271;28;20052;-79
2021/07/08 03:07:32;;;;;;;8.18;3.00;;;;;;;24.35;63.34;100426.56;5033943;28;20381;-81
2021/07/08 03:10:38;;;;;;;9.00;2.83;;;;;;;24.22;63.43;100435.72;5034007;28;20056;-78
2021/07/08 03:13:42;;;;;;;4.55;2.42;;;;;;;24.08;64.20;100436.88;5033278;28;20068;-79
2021/07/08 03:16:47;;;;;;;5.95;2.75;;;;;;;24.05;64.74;100425.50;5033751;28;20072;-80
2021/07/08 03:19:52;;;;;;;9.32;3.42;;;;;;;24.05;64.70;100422.75;5033582;28;20400;-78
2021/07/08 03:22:58;;;;;;;8.15;3.63;;;;;;;24.00;65.26;100434.34;5033862;28;20068;-80
2021/07/08 03:26:03;;;;;;;8.50;2.60;;;;;;;23.98;66.00;100427.41;5032824;28;20397;-79
2021/07/08 03:29:07;;;;;;;6.32;2.80;;;;;;;24.07;65.98;100429.72;5033924;28;20053;-79
2021/07/08 03:32:11;;;;;;;7.80;2.90;;;;;;;24.06;65.98;100421.66;5033826;28;20048;-80
2021/07/08 03:35:16;;;;;;;6.13;2.92;;;;;;;24.19;65.59;100432.59;5033398;28;20416;-79
2021/07/08 03:38:21;;;;;;;6.07;2.75;;;;;;;24.28;65.39;100436.75;5033417;28;20053;-80
2021/07/08 03:41:25;;;;;;;5.20;2.65;;;;;;;24.30;65.18;100440.97;5033262;28;20068;-80
2021/07/08 03:44:30;;;;;;;5.40;2.67;;;;;;;24.32;65.27;100448.97;5033643;28;20045;-80
2021/07/08 03:47:35;;;;;;;5.90;2.53;;;;;;;24.39;64.99;100452.53;5033364;28;20049;-79
2021/07/08 03:50:39;;;;;;;6.88;2.40;;;;;;;24.42;64.56;100450.16;5031919;28;20052;-79
2021/07/08 03:53:43;;;;;;;7.10;3.10;;;;;;;24.24;65.13;100455.56;5033332;28;20406;-80
2021/07/08 03:56:48;;;;;;;13.45;3.15;;;;;;;24.03;65.63;100450.38;5037030;28;20040;-80
2021/07/08 03:59:52;;;;;;;8.93;3.20;;;;;;;23.87;66.13;100448.97;5037037;28;20393;-79
2021/07/08 04:02:59;;;;;;;6.25;2.78;;;;;;;23.97;66.23;100453.16;5037315;28;20492;-79
2021/07/08 04:06:03;;;;;;;6.03;2.92;;;;;;;23.91;66.24;100452.97;5036053;28;20053;-80
2021/07/08 04:09:07;;;;;;;7.65;3.20;;;;;;;23.82;66.37;100470.75;5036987;28;20064;-80
2021/07/08 04:12:11;;;;;;;6.30;3.03;;;;;;;23.77;66.80;100480.69;5037159;28;20056;-80
2021/07/08 04:15:17;;;;;;;8.63;3.30;;;;;;;23.74;67.02;100479.22;5036683;28;20045;-79
2021/07/08 04:18:21;;;;;;;8.50;3.03;;;;;;;23.67;67.49;100480.28;5036028;28;20511;-80
2021/07/08 04:21:26;;;;;;;5.97;3.50;;;;;;;23.79;66.84;100476.66;5036810;28;20072;-78
2021/07/08 04:24:30;;;;;;;5.47;3.25;;;;;;;23.90;66.51;100467.75;5036985;28;20377;-77
2021/07/08 04:27:35;;;;;;;6.60;2.97;;;;;;;24.11;65.67;100463.03;5036621;28;20045;-78
2021/07/08 04:30:40;;;;;;;6.88;3.20;;;;;;;24.30;64.91;100464.81;5033579;28;20057;-80
2021/07/08 04:33:46;;;;;;;5.82;2.70;;;;;;;24.38;64.49;100456.31;5029390;28;20076;-79
2021/07/08 04:36:50;;;;;;;6.20;3.13;;;;;;;24.67;64.07;100447.44;5036786;28;20052;-79
2021/07/08 04:39:55;;;;;;;4.88;2.72;;;;;;;25.10;62.70;100453.84;5036104;28;20052;-78
2021/07/08 04:43:00;;;;;;;5.38;2.72;;;;;;;25.47;61.85;100460.25;5034915;28;20124;-79
2021/07/08 04:46:04;;;;;;;7.95;3.03;;;;;;;25.83;60.74;100464.88;5036127;28;20389;-79
2021/07/08 04:49:08;;;;;;;6.65;3.25;;;;;;;25.94;59.72;100472.34;5035921;28;20056;-80
2021/07/08 04:52:12;;;;;;;6.40;3.08;;;;;;;26.02;59.09;100479.44;5036430;28;20062;-79
2021/07/08 04:55:21;;;;;;;5.05;2.63;;;;;;;26.14;59.43;100485.88;5036255;28;20057;-80
2021/07/08 04:58:27;;;;;;;7.93;2.97;;;;;;;26.20;58.89;100493.19;5036071;28;20048;-79
2021/07/08 05:01:31;;;;;;;29.50;26.58;;;;;;;26.31;58.22;100493.25;5035935;28;20583;-80
2021/07/08 05:04:35;;;;;;;21.15;18.88;;;;;;;26.41;58.17;100495.44;5035826;28;20037;-79
2021/07/08 05:07:40;;;;;;;8.50;5.10;;;;;;;26.67;57.79;100506.03;5035146;28;20484;-80
2021/07/08 05:10:44;;;;;;;4.55;2.83;;;;;;;27.00;56.43;100502.78;5035927;28;20052;-78
2021/07/08 05:13:49;;;;;;;9.27;3.63;;;;;;;27.21;55.13;100501.38;5033133;28;20052;-80
2021/07/08 05:16:53;;;;;;;4.93;3.40;;;;;;;27.15;55.79;100499.56;5035180;28;20057;-80
2021/07/08 05:19:58;;;;;;;8.02;3.15;;;;;;;26.97;56.48;100487.56;5015608;28;20049;-80
2021/07/08 05:23:04;;;;;;;7.65;3.35;;;;;;;26.92;56.52;100494.84;5015368;28;20053;-80
2021/07/08 05:26:09;;;;;;;7.70;3.58;;;;;;;26.85;56.82;100488.63;5015412;28;20057;-81
2021/07/08 05:29:14;;;;;;;10.35;3.63;;;;;;;26.80;57.98;100503.13;5015714;28;20053;-80
2021/07/08 05:32:18;;;;;;;6.72;3.58;;;;;;;26.76;58.44;100510.19;5003441;28;20049;-80
2021/07/08 05:35:23;;;;;;;5.20;3.70;;;;;;;26.66;58.69;100503.53;5014717;28;20093;-80
2021/07/08 05:38:27;;;;;;;6.57;3.80;;;;;;;26.49;59.44;100506.13;5015060;28;20057;-80
2021/07/08 05:41:32;;;;;;;8.30;4.75;;;;;;;26.10;60.12;100504.72;5003276;28;20065;-81
2021/07/08 05:44:36;;;;;;;6.85;4.18;;;;;;;25.89;60.99;100516.22;5015260;28;20045;-80
2021/07/08 05:47:40;;;;;;;8.85;4.07;;;;;;;25.82;61.32;100519.03;5015430;28;20492;-81
2021/07/08 05:50:44;;;;;;;7.03;3.65;;;;;;;25.87;61.27;100517.50;5020499;28;20057;-80
2021/07/08 05:53:49;;;;;;;8.60;3.63;;;;;;;25.89;61.09;100529.13;5013606;28;20048;-80
2021/07/08 05:56:53;;;;;;;13.65;4.03;;;;;;;25.96;60.68;100522.47;5035018;28;20055;-80
2021/07/08 05:59:57;;;;;;;7.90;4.03;;;;;;;25.94;60.93;100532.88;5035121;28;20060;-81
2021/07/08 06:03:02;;;;;;;9.68;4.50;;;;;;;25.93;61.42;100535.84;5032891;28;20052;-81
2021/07/08 06:06:07;;;;;;;12.60;5.03;;;;;;;25.97;61.11;100550.81;5033680;28;20056;-79
2021/07/08 06:09:11;;;;;;;13.27;5.00;;;;;;;26.02;61.04;100537.22;5034404;28;20068;-78
2021/07/08 06:12:16;;;;;;;8.65;4.57;;;;;;;26.25;60.69;100520.84;5034276;28;20053;-79
2021/07/08 06:15:20;;;;;;;7.55;5.15;;;;;;;26.35;60.93;100507.38;5033124;28;20512;-80
2021/07/08 06:18:24;;;;;;;11.13;5.25;;;;;;;26.89;59.96;100509.09;5033597;28;20104;-80
2021/07/08 06:21:29;;;;;;;9.60;5.47;;;;;;;26.85;60.38;100517.00;5033086;28;20060;-80
2021/07/08 06:24:34;;;;;;;10.57;5.28;;;;;;;26.75;60.96;100510.38;5031754;28;20060;-80
2021/07/08 06:27:39;;;;;;;8.15;4.40;;;;;;;26.65;61.16;100505.44;5007463;28;20052;-79
2021/07/08 06:30:44;;;;;;;14.80;5.40;;;;;;;26.80;61.60;100510.53;5007752;28;20061;-81
2021/07/08 06:33:48;;;;;;;14.10;5.68;;;;;;;27.02;60.56;100512.50;5008078;28;20396;-82
2021/07/08 06:36:53;;;;;;;11.73;5.85;;;;;;;27.41;59.39;100523.91;4985708;28;20520;-81
2021/07/08 06:39:57;;;;;;;20.48;6.22;;;;;;;28.28;57.33;100531.09;4977921;28;20512;-82
2021/07/08 06:43:02;;;;;;;12.57;5.40;;;;;;;30.37;51.46;100535.06;4989096;28;20520;-81
2021/07/08 06:46:07;;;;;;;10.52;6.38;;;;;;;31.18;48.49;100534.78;5012257;28;20049;-80
2021/07/08 06:49:12;;;;;;;10.02;5.97;;;;;;;30.64;50.13;100538.69;5001609;28;20061;-81
2021/07/08 06:52:16;;;;;;;10.02;6.07;;;;;;;29.92;51.67;100544.47;5011855;28;20072;-81
2021/07/08 06:55:21;;;;;;;9.73;6.15;;;;;;;30.35;51.43;100528.94;5013632;28;20053;-82
2021/07/08 06:58:25;;;;;;;11.02;5.70;;;;;;;33.15;44.17;100530.09;5013521;28;20053;-79
2021/07/08 07:01:29;;;;;;;15.07;5.32;;;;;;;36.13;37.83;100535.56;5013149;28;20061;-82
2021/07/08 07:04:33;;;;;;;10.15;5.35;;;;;;;37.89;34.71;100536.69;5013242;28;20077;-80
2021/07/08 07:07:38;;;;;;;9.27;5.00;;;;;;;39.66;32.21;100531.41;5014230;28;20056;-80
2021/07/08 07:10:42;;;;;;;13.10;4.82;;;;;;;40.83;30.43;100538.88;4991078;28;20060;-80
2021/07/08 07:13:47;;;;;;;10.80;5.22;;;;;;;41.03;30.17;100540.22;5013795;28;20049;-79
2021/07/08 07:16:52;;;;;;;9.13;4.03;;;;;;;42.01;28.94;100548.63;5001695;28;20381;-79
2021/07/08 07:19:56;;;;;;;8.07;4.10;;;;;;;43.38;27.79;100547.66;5013804;28;20057;-79
2021/07/08 07:23:00;;;;;;;8.25;4.90;;;;;;;43.08;28.04;100540.47;5013829;28;20048;-79
2021/07/08 07:26:05;;;;;;;13.30;4.90;;;;;;;41.44;29.71;100534.03;5013951;28;20053;-79
2021/07/08 07:29:09;;;;;;;13.15;4.63;;;;;;;41.58;29.65;100542.31;5025182;28;20061;-79
2021/07/08 07:32:13;;;;;;;14.85;5.38;;;;;;;41.16;29.87;100539.19;5017637;28;20056;-79
2021/07/08 07:35:18;;;;;;;9.07;5.50;;;;;;;40.48;31.20;100536.34;5017593;28;20049;-79
2021/07/08 07:38:22;;;;;;;12.98;5.13;;;;;;;41.46;29.81;100534.53;5017224;28;20049;-79
2021/07/08 07:41:27;;;;;;;10.15;5.30;;;;;;;41.74;29.28;100518.03;5017213;28;20509;-79
2021/07/08 07:44:33;;;;;;;10.90;4.22;;;;;;;40.95;30.43;100518.53;5017159;28;20057;-79
2021/07/08 07:47:38;;;;;;;9.05;4.10;;;;;;;41.06;30.58;100508.53;5017341;28;20049;-79
2021/07/08 07:50:42;;;;;;;8.25;4.28;;;;;;;40.65;31.31;100496.97;5016745;28;20045;-80
2021/07/08 07:53:47;;;;;;;8.48;4.80;;;;;;;39.92;31.77;100494.97;5017448;28;20052;-80
2021/07/08 07:56:51;;;;;;;9.90;5.60;;;;;;;38.25;34.62;100487.13;5017312;28;20386;-79
2021/07/08 07:59:56;;;;;;;7.68;5.88;;;;;;;36.09;38.53;100486.97;5017420;28;20057;-79
2021/07/08 08:03:01;;;;;;;13.35;6.38;;;;;;;34.90;40.57;100474.78;5017408;28;20068;-80
2021/07/08 08:09:27;;;;;;;;;;;;;;;34.07;42.64;100470.31;5017792;28;20045;-79
2021/07/08 08:12:32;;;;;;;11.98;6.80;;;;;;;34.02;42.91;100480.31;5017086;28;20348;-79
2021/07/08 08:15:37;;;;;;;8.52;6.78;;;;;;;33.22;44.29;100484.19;5017074;28;20405;-79
2021/07/08 08:18:41;;;;;;;13.95;7.60;;;;;;;32.81;45.38;100473.31;5017129;28;20061;-79
2021/07/08 08:21:46;;;;;;;12.55;6.30;;;;;;;32.39;46.49;100476.31;5016601;28;20053;-78
2021/07/08 08:24:51;;;;;;;10.85;6.50;;;;;;;32.18;47.47;100483.75;5016492;28;20041;-79
2021/07/08 08:27:55;;;;;;;16.23;7.82;;;;;;;31.96;48.51;100488.63;5016493;28;20057;-78
2021/07/08 08:31:00;;;;;;;16.15;7.13;;;;;;;31.89;49.17;100494.44;5016958;28;20053;-79
2021/07/08 08:34:04;;;;;;;11.05;7.68;;;;;;;31.80;49.51;100500.78;5017008;28;20092;-79
2021/07/08 08:37:09;;;;;;;15.07;7.55;;;;;;;31.42;50.68;100479.72;5016505;28;20048;-78
2021/07/08 08:40:14;;;;;;;15.32;9.55;;;;;;;31.19;51.13;100480.97;5016384;28;20428;-79
2021/07/08 08:43:19;;;;;;;15.55;10.70;;;;;;;30.66;53.11;100479.13;5016602;28;20382;-79
2021/07/08 08:46:24;;;;;;;16.73;10.98;;;;;;;30.31;54.83;100472.34;5016012;28;20042;-79
2021/07/08 08:49:28;;;;;;;14.50;10.00;;;;;;;30.50;53.83;100470.91;5015939;28;20050;-78
2021/07/08 08:52:35;;;;;;;16.23;11.30;;;;;;;30.61;54.67;100464.38;5016194;28;20045;-79
2021/07/08 08:55:42;;;;;;;16.38;11.50;;;;;;;31.00;53.67;100478.88;5004236;28;20042;-80
2021/07/08 08:58:46;;;;;;;23.95;12.98;;;;;;;31.46;52.20;100486.44;5016152;28;20046;-79
2021/07/08 09:02:10;;;;;;;15.48;12.23;;;;;;;31.94;51.27;100479.75;5016037;28;20049;-80
2021/07/08 09:05:18;;;;;;;15.57;12.52;;;;;;;31.84;51.25;100485.25;5003932;28;20049;-80
2021/07/08 09:08:23;;;;;;;19.73;11.52;;;;;;;32.06;50.77;100485.94;5015969;28;20485;-78
2021/07/08 09:11:28;;;;;;;16.60;10.82;;;;;;;32.34;50.16;100470.72;5004267;28;20045;-79
2021/07/08 09:14:32;;;;;;;19.10;10.55;;;;;;;32.68;48.73;100466.34;5015797;28;20038;-78
2021/07/08 09:17:40;;;;;;;15.77;10.88;;;;;;;32.66;48.97;100474.16;5026095;28;20038;-79
2021/07/08 09:20:44;;;;;;;16.77;10.90;;;;;;;33.08;48.14;100479.47;5015820;28;20046;-79
2021/07/08 09:24:15;;;;;;;18.70;11.55;;;;;;;33.19;47.89;100478.31;5015717;28;20046;-80
2021/07/08 09:27:25;;;;;;;15.73;10.45;;;;;;;33.11;47.99;100474.16;5015948;28;20428;-80
2021/07/08 09:30:30;;;;;;;18.77;10.48;;;;;;;33.32;47.05;100466.63;5003704;28;20042;-80
2021/07/08 09:33:40;;;;;;;13.25;8.48;;;;;;;33.46;46.20;100453.78;5015497;28;20049;-81
2021/07/08 09:36:47;;;;;;;15.15;10.02;;;;;;;33.39;46.66;100447.69;5003334;28;20045;-81
2021/07/08 09:39:54;;;;;;;22.40;10.13;;;;;;;33.50;46.66;100452.13;5015209;28;20034;-80
2021/07/08 09:42:58;;;;;;;12.30;8.07;;;;;;;33.67;47.32;100455.44;5015405;28;20050;-79
2021/07/08 09:46:03;;;;;;;19.02;12.23;;;;;;;33.04;48.34;100456.91;5015326;28;20053;-80
2021/07/08 09:49:11;;;;;;;17.50;10.80;;;;;;;33.28;47.78;100449.63;5014913;28;20050;-80
2021/07/08 09:52:16;;;;;;;17.67;12.80;;;;;;;32.85;50.30;100441.88;5015019;28;20046;-80
2021/07/08 09:55:30;;;;;;;15.32;11.63;;;;;;;32.56;50.53;100427.72;5015040;28;20041;-79
2021/07/08 09:58:50;;;;;;;20.08;11.00;;;;;;;32.49;50.20;100424.31;5015187;28;20046;-80
2021/07/08 10:01:57;;;;;;;15.35;8.60;;;;;;;32.73;48.94;100396.84;5014851;28;20054;-80
2021/07/08 10:05:01;;;;;;;20.02;12.18;;;;;;;32.43;49.48;100406.00;5015002;28;20064;-79
2021/07/08 10:08:07;;;;;;;13.63;9.68;;;;;;;31.94;49.66;100413.09;5015227;28;20042;-80
2021/07/08 10:11:17;;;;;;;10.25;7.95;;;;;;;32.08;48.99;100409.53;5014930;28;20057;-79
2021/07/08 10:14:22;;;;;;;14.60;9.75;;;;;;;32.59;48.15;100421.59;5015191;28;20077;-79
2021/07/08 10:17:31;;;;;;;11.85;7.53;;;;;;;32.68;47.15;100419.94;5014746;28;20053;-79
2021/07/08 10:20:37;;;;;;;11.63;8.75;;;;;;;33.24;46.48;100417.09;5014968;28;20061;-79
2021/07/08 10:23:41;;;;;;;15.05;10.00;;;;;;;33.19;47.55;100412.38;5014674;28;20052;-80
2021/07/08 10:26:47;;;;;;;17.02;9.40;;;;;;;33.37;47.29;100397.03;5002543;28;20049;-80
2021/07/08 10:29:53;;;;;;;24.13;15.98;;;;;;;32.39;51.64;100388.22;5014632;28;20393;-81
2021/07/08 10:32:59;;;;;;;24.98;16.00;;;;;;;31.76;53.39;100374.72;5014563;28;20049;-80
2021/07/08 10:36:03;;;;;;;19.70;13.98;;;;;;;31.74;54.03;100369.44;5002450;28;20042;-80
2021/07/08 10:39:10;;;;;;;18.42;13.82;;;;;;;32.03;53.69;100370.66;5014465;28;20049;-80
2021/07/08 10:42:49;;;;;;;18.98;12.77;;;;;;;32.27;52.89;100362.59;5014163;28;20042;-79
2021/07/08 10:46:12;;;;;;;16.33;12.02;;;;;;;32.21;51.48;100362.88;5014279;28;20050;-80
2021/07/08 10:49:16;;;;;;;17.27;9.43;;;;;;;32.35;51.03;100364.84;5002239;28;20473;-80
2021/07/08 10:52:46;;;;;;;20.45;13.27;;;;;;;32.25;52.48;100367.63;5014542;28;20061;-80
2021/07/08 10:55:56;;;;;;;23.67;12.65;;;;;;;31.98;53.52;100362.31;5013845;28;20054;-79
2021/07/08 10:59:14;;;;;;;24.70;13.82;;;;;;;31.98;53.53;100364.25;5014129;28;20046;-79
2021/07/08 11:02:47;;;;;;;18.30;13.35;;;;;;;31.90;53.43;100368.34;5013801;28;20042;-79
2021/07/08 11:05:56;;;;;;;16.00;10.90;;;;;;;32.60;51.22;100370.44;5001580;28;20050;-79
2021/07/08 11:09:19;;;;;;;17.20;12.90;;;;;;;32.54;51.78;100374.31;5013976;28;20386;-80
2021/07/08 11:12:32;;;;;;;28.88;13.10;;;;;;;32.96;50.47;100387.91;5001864;28;20041;-79
2021/07/08 11:15:54;;;;;;;23.10;12.07;;;;;;;33.23;49.52;100393.19;5014248;28;20050;-80
2021/07/08 11:19:03;;;;;;;19.33;10.63;;;;;;;33.33;48.90;100387.59;5001757;28;20046;-81
2021/07/08 11:22:13;;;;;;;16.63;9.80;;;;;;;33.15;48.58;100388.19;5001884;28;20482;-80
2021/07/08 11:25:18;;;;;;;18.88;10.05;;;;;;;33.20;49.00;100404.88;5014199;28;20065;-79
2021/07/08 11:28:31;;;;;;;17.98;10.93;;;;;;;33.19;49.61;100433.81;4990857;28;20050;-78
2021/07/08 11:31:36;;;;;;;16.77;9.45;;;;;;;33.21;49.56;100435.19;5001791;28;20050;-80
2021/07/08 11:35:17;;;;;;;16.10;10.02;;;;;;;32.85;50.19;100424.38;5013560;28;20044;-80
2021/07/08 11:38:25;;;;;;;14.88;9.77;;;;;;;32.62;49.89;100415.47;5013686;28;20042;-79
2021/07/08 11:41:30;;;;;;;16.38;9.15;;;;;;;32.33;50.10;100405.97;5013691;28;20045;-80
2021/07/08 11:44:37;;;;;;;12.68;8.55;;;;;;;32.00;50.85;100423.13;5013955;28;20053;-79
2021/07/08 11:47:45;;;;;;;17.55;7.80;;;;;;;31.71;51.55;100430.22;5013637;28;20117;-79
2021/07/08 11:50:50;;;;;;;14.68;9.63;;;;;;;31.19;53.39;100432.97;5012965;28;20052;-81
2021/07/08 11:53:57;;;;;;;21.52;11.25;;;;;;;30.85;54.42;100457.38;5013549;28;20061;-79
2021/07/08 11:57:01;;;;;;;15.85;10.32;;;;;;;30.64;55.65;100497.13;5013973;28;20381;-80
2021/07/08 12:00:06;;;;;;;17.70;9.10;;;;;;;30.43;56.50;100523.78;5013845;28;20045;-80
2021/07/08 12:03:39;;;;;;;14.15;8.88;;;;;;;30.44;55.90;100488.59;5013894;28;20061;-80
2021/07/08 12:07:04;;;;;;;17.80;9.93;;;;;;;30.22;56.83;100411.88;5013435;28;20060;-80
2021/07/08 12:10:10;;;;;;;15.15;10.38;;;;;;;29.75;58.96;100412.72;5000903;28;20057;-80
2021/07/08 12:13:19;;;;;;;15.38;9.40;;;;;;;29.72;59.92;100418.75;5013173;28;20392;-79
2021/07/08 12:16:38;;;;;;;14.48;9.77;;;;;;;29.56;60.27;100451.78;5014559;28;20389;-80
2021/07/08 12:19:42;;;;;;;14.57;8.38;;;;;;;29.55;60.58;100463.09;5016724;28;20049;-80
2021/07/08 12:23:02;;;;;;;13.23;9.77;;;;;;;29.41;61.24;100459.00;5016624;28;20061;-80
2021/07/08 12:26:20;;;;;;;17.52;9.57;;;;;;;29.40;60.77;100474.78;5017117;28;20053;-81
2021/07/08 12:29:33;;;;;;;11.60;8.20;;;;;;;29.44;61.85;100483.41;5016906;28;20045;-80
2021/07/08 12:32:37;;;;;;;12.18;8.73;;;;;;;29.52;61.21;100474.66;5017078;28;20045;-80
2021/07/08 12:35:48;;;;;;;17.55;9.88;;;;;;;29.51;61.04;100446.16;5017003;28;20385;-80
2021/07/08 12:38:52;;;;;;;21.42;10.73;;;;;;;29.27;61.86;100414.31;5016638;28;20044;-80
2021/07/08 12:41:57;;;;;;;18.95;10.88;;;;;;;29.30;62.29;100390.84;5015991;28;20046;-80
2021/07/08 12:45:07;;;;;;;22.95;11.27;;;;;;;29.37;61.69;100359.13;5016228;28;20053;-80
2021/07/08 12:48:14;;;;;;;22.30;10.55;;;;;;;29.48;62.29;100315.84;5027433;28;20046;-80
2021/07/08 12:51:19;;;;;;;17.02;11.13;;;;;;;29.64;61.76;100324.03;5016029;28;20050;-80
2021/07/08 12:54:27;;;;;;;22.15;11.25;;;;;;;29.78;61.87;100343.00;5016590;28;20042;-81
2021/07/08 12:57:32;;;;;;;22.70;12.65;;;;;;;29.62;62.72;100329.00;4992798;28;20046;-81
2021/07/08 13:00:37;;;;;;;18.98;12.48;;;;;;;29.57;62.83;100308.75;5016370;28;20038;-80
2021/07/08 13:03:42;;;;;;;24.70;12.60;;;;;;;29.72;62.29;100308.06;5016180;28;20045;-79
2021/07/08 13:06:46;;;;;;;19.75;11.10;;;;;;;29.84;62.49;100290.25;5016322;28;20046;-81
2021/07/08 13:10:00;;;;;;;20.42;10.30;;;;;;;30.02;61.66;100331.38;5015548;28;20054;-80
2021/07/08 13:13:07;;;;;;;22.80;9.57;;;;;;;29.97;59.37;100334.13;4993398;28;20061;-80
2021/07/08 13:16:22;;;;;;;16.13;8.00;;;;;;;29.81;58.67;100323.13;5004149;28;20382;-81
2021/07/08 13:20:08;;;;;;;13.88;8.85;;;;;;;29.76;60.96;100323.88;5015854;28;20050;-79
2021/07/08 13:23:18;;;;;;;14.27;7.22;;;;;;;29.72;60.13;100341.28;5003824;28;20402;-80
2021/07/08 13:26:23;;;;;;;13.57;7.20;;;;;;;29.65;59.19;100341.50;5016058;28;20061;-81
2021/07/08 13:29:27;;;;;;;15.23;8.10;;;;;;;29.60;59.52;100324.81;4992119;28;20061;-79
2021/07/08 13:32:33;;;;;;;14.10;7.47;;;;;;;29.85;60.36;100308.50;5003910;28;20409;-80
2021/07/08 13:35:54;;;;;;;11.70;6.07;;;;;;;30.07;59.48;100319.53;5015382;28;20397;-80
2021/07/08 13:38:58;;;;;;;10.07;6.03;;;;;;;30.29;58.60;100342.44;5003623;28;20049;-79
2021/07/08 13:42:04;;;;;;;15.10;6.03;;;;;;;30.40;56.82;100324.81;5015549;28;20065;-79
2021/07/08 13:45:27;;;;;;;9.38;5.68;;;;;;;29.95;57.13;100299.47;5015186;28;20056;-79
2021/07/08 13:48:35;;;;;;;11.85;5.50;;;;;;;29.82;56.12;100294.38;5015353;28;20396;-80
2021/07/08 13:51:55;;;;;;;13.50;6.00;;;;;;;29.72;55.93;100281.22;5015018;28;20056;-80
2021/07/08 13:54:59;;;;;;;12.05;7.85;;;;;;;29.54;57.34;100281.59;5015503;28;20049;-80
2021/07/08 13:58:05;;;;;;;17.45;7.95;;;;;;;29.51;57.10;100282.94;5015154;28;20068;-80
2021/07/08 14:01:10;;;;;;;12.55;7.53;;;;;;;29.69;57.14;100276.22;5002959;28;20385;-80
2021/07/08 14:04:15;;;;;;;18.50;9.50;;;;;;;29.89;57.04;100272.84;5014832;28;20421;-79
2021/07/08 14:07:20;;;;;;;14.13;7.45;;;;;;;30.10;57.46;100269.13;5015070;28;20060;-80
2021/07/08 14:10:24;;;;;;;19.60;10.60;;;;;;;30.33;57.63;100276.25;5014811;28;20048;-80
2021/07/08 14:13:29;;;;;;;14.25;9.70;;;;;;;30.54;57.46;100280.88;5014888;28;20045;-79
2021/07/08 14:16:35;;;;;;;12.02;8.93;;;;;;;30.57;57.30;100283.94;5002710;28;20061;-79
2021/07/08 14:19:40;;;;;;;16.92;8.48;;;;;;;30.69;55.62;100283.75;5015083;28;20389;-81
2021/07/08 14:22:45;;;;;;;12.82;8.13;;;;;;;30.67;54.64;100272.91;5014782;28;20057;-79
2021/07/08 14:25:50;;;;;;;14.50;7.90;;;;;;;30.64;54.91;100269.84;5014365;28;20061;-80